createdAt,value
2023-01-20T00:00:49.533Z,43.60
2023-01-20T00:02:07.294Z,43.50
2023-01-20T00:03:10.324Z,45.80
2023-01-20T00:04:14.336Z,46.60
2023-01-20T00:05:17.215Z,46.60
2023-01-20T00:06:20.620Z,48.00
2023-01-20T00:07:23.736Z,45.60
2023-01-20T00:08:26.703Z,46.30
2023-01-20T00:09:29.628Z,43.40
2023-01-20T00:10:32.504Z,44.70
2023-01-20T00:11:35.311Z,44.90
2023-01-20T00:12:38.179Z,42.70
2023-01-20T00:13:41.164Z,43.30
2023-01-20T00:14:44.046Z,42.80
2023-01-20T00:15:48.498Z,43.10
2023-01-20T00:16:51.522Z,43.00
2023-01-20T00:17:54.371Z,44.20
2023-01-20T00:18:57.573Z,42.90
2023-01-20T00:20:00.433Z,42.70
2023-01-20T00:21:11.668Z,43.90
2023-01-20T00:22:14.641Z,43.10
2023-01-20T00:23:17.501Z,45.40
2023-01-20T00:24:20.361Z,45.20
2023-01-20T00:25:23.600Z,46.90
2023-01-20T00:26:26.504Z,46.40
2023-01-20T00:27:29.348Z,48.40
2023-01-20T00:28:32.523Z,49.20
2023-01-20T00:29:35.385Z,46.90
2023-01-20T00:30:38.283Z,45.40
2023-01-20T00:31:41.293Z,48.00
2023-01-20T00:32:45.471Z,46.80
2023-01-20T00:33:50.104Z,46.70
2023-01-20T00:34:52.928Z,46.80
2023-01-20T00:35:55.811Z,47.30
2023-01-20T00:36:59.007Z,46.50
2023-01-20T00:38:01.883Z,47.80
2023-01-20T00:39:05.469Z,47.10
2023-01-20T00:40:09.360Z,46.80
2023-01-20T00:41:12.969Z,44.60
2023-01-20T00:42:15.937Z,47.50
2023-01-20T00:43:18.807Z,44.90
2023-01-20T00:44:21.699Z,44.20
2023-01-20T00:45:24.699Z,44.30
2023-01-20T00:46:27.719Z,44.70
2023-01-20T00:47:30.618Z,44.40
2023-01-20T00:48:34.307Z,45.40
2023-01-20T00:49:37.191Z,45.00
2023-01-20T00:50:40.116Z,44.20
2023-01-20T00:51:43.019Z,45.50
2023-01-20T00:52:45.890Z,44.90
2023-01-20T00:53:49.167Z,43.10
2023-01-20T00:54:52.382Z,43.90
2023-01-20T00:55:55.288Z,44.10
2023-01-20T00:56:58.375Z,41.90
2023-01-20T00:58:01.367Z,41.50
2023-01-20T00:59:04.275Z,44.20
2023-01-20T01:00:07.823Z,42.50
2023-01-20T01:01:11.785Z,43.30
2023-01-20T01:02:14.672Z,41.60
2023-01-20T01:03:18.330Z,43.80
2023-01-20T01:04:21.807Z,44.60
2023-01-20T01:05:24.719Z,42.90
2023-01-20T01:06:27.585Z,43.80
2023-01-20T01:07:30.444Z,42.60
2023-01-20T01:08:34.517Z,43.00
2023-01-20T01:09:37.446Z,43.30
2023-01-20T01:10:41.115Z,41.60
2023-01-20T01:11:44.103Z,42.80
2023-01-20T01:12:46.962Z,40.80
2023-01-20T01:13:49.888Z,40.30
2023-01-20T01:14:52.746Z,42.30
2023-01-20T01:15:55.739Z,40.00
2023-01-20T01:16:58.660Z,39.70
2023-01-20T01:18:01.862Z,41.50
2023-01-20T01:19:04.802Z,39.90
2023-01-20T01:20:08.511Z,40.00
2023-01-20T01:21:15.077Z,41.20
2023-01-20T01:22:17.958Z,40.10
2023-01-20T01:23:20.823Z,40.30
2023-01-20T01:24:23.742Z,40.90
2023-01-20T01:25:26.709Z,40.20
2023-01-20T01:26:30.269Z,40.50
2023-01-20T01:27:33.164Z,41.30
2023-01-20T01:28:36.477Z,39.90
2023-01-20T01:29:39.508Z,40.70
2023-01-20T01:30:42.541Z,41.50
2023-01-20T01:31:45.451Z,41.80
2023-01-20T01:32:48.393Z,42.20
2023-01-20T01:33:51.686Z,41.10
2023-01-20T01:34:54.590Z,40.70
2023-01-20T01:35:58.778Z,39.70
2023-01-20T01:37:01.657Z,41.80
2023-01-20T01:38:04.561Z,39.60
2023-01-20T01:39:07.447Z,40.10
2023-01-20T01:40:10.988Z,40.90
2023-01-20T01:41:15.341Z,39.00
2023-01-20T01:42:20.714Z,41.00
2023-01-20T01:43:25.839Z,40.00
2023-01-20T01:44:28.762Z,38.70
2023-01-20T01:45:33.154Z,39.10
2023-01-20T01:46:37.357Z,40.20
2023-01-20T01:47:49.542Z,40.70
2023-01-20T01:48:53.249Z,37.70
2023-01-20T01:49:56.142Z,39.30
2023-01-20T01:51:05.313Z,40.20
2023-01-20T01:52:10.288Z,40.70
2023-01-20T01:53:15.316Z,38.80
2023-01-20T01:54:23.313Z,40.80
2023-01-20T01:55:34.847Z,39.00
2023-01-20T01:56:40.190Z,38.70
2023-01-20T01:57:43.368Z,40.10
2023-01-20T01:58:51.153Z,39.30
2023-01-20T01:59:54.037Z,39.20
2023-01-20T02:00:57.266Z,40.20
2023-01-20T02:02:00.363Z,40.50
2023-01-20T02:03:04.594Z,39.80
2023-01-20T02:04:13.213Z,37.90
2023-01-20T02:05:17.805Z,40.80
2023-01-20T02:06:24.605Z,38.90
2023-01-20T02:07:28.198Z,39.00
2023-01-20T02:08:31.871Z,40.00
2023-01-20T02:09:35.845Z,40.40
2023-01-20T02:10:38.734Z,41.00
2023-01-20T02:11:48.650Z,40.50
2023-01-20T02:12:52.103Z,41.80
2023-01-20T02:13:55.411Z,41.20
2023-01-20T02:15:02.493Z,41.40
2023-01-20T02:16:13.223Z,41.40
2023-01-20T02:17:30.383Z,41.20
2023-01-20T02:18:42.358Z,42.50
2023-01-20T02:20:10.048Z,42.20
2023-01-20T02:21:34.294Z,41.10
2023-01-20T02:23:08.239Z,39.30
2023-01-20T02:24:37.418Z,38.80
2023-01-20T02:26:11.459Z,39.10
2023-01-20T02:27:26.341Z,38.90
2023-01-20T02:28:44.911Z,40.70
2023-01-20T02:29:53.586Z,39.40
2023-01-20T02:31:18.501Z,40.60
2023-01-20T02:32:41.014Z,39.90
2023-01-20T02:34:02.391Z,40.40
2023-01-20T02:35:13.592Z,40.30
2023-01-20T02:36:28.274Z,40.40
2023-01-20T02:38:13.431Z,40.10
2023-01-20T02:39:45.527Z,39.50
2023-01-20T02:40:53.618Z,39.80
2023-01-20T02:42:14.897Z,40.60
2023-01-20T02:43:46.943Z,38.40
2023-01-20T02:45:03.186Z,38.30
2023-01-20T02:46:14.606Z,40.90
2023-01-20T02:47:30.163Z,39.50
2023-01-20T02:49:00.819Z,39.00
2023-01-20T02:50:22.904Z,36.40
2023-01-20T02:51:33.147Z,35.60
2023-01-20T02:52:46.150Z,39.40
2023-01-20T02:53:57.141Z,38.10
2023-01-20T02:55:05.244Z,38.40
2023-01-20T02:56:09.612Z,38.30
2023-01-20T02:57:17.554Z,38.10
2023-01-20T02:58:30.082Z,40.20
2023-01-20T02:59:38.010Z,38.80
2023-01-20T03:01:03.837Z,38.10
2023-01-20T03:02:11.412Z,37.60
2023-01-20T03:03:19.863Z,38.30
2023-01-20T03:04:28.048Z,39.10
2023-01-20T03:05:33.755Z,40.90
2023-01-20T03:06:42.555Z,38.60
2023-01-20T03:07:46.384Z,40.70
2023-01-20T03:08:52.836Z,39.10
2023-01-20T03:09:58.849Z,40.10
2023-01-20T03:11:06.157Z,40.20
2023-01-20T03:12:38.982Z,38.00
2023-01-20T03:13:52.679Z,39.00
2023-01-20T03:14:55.895Z,40.70
2023-01-20T03:16:04.545Z,42.90
2023-01-20T03:17:07.488Z,41.00
2023-01-20T03:18:10.444Z,40.00
2023-01-20T03:19:13.579Z,41.00
2023-01-20T03:20:17.124Z,43.40
2023-01-20T03:21:20.313Z,41.90
2023-01-20T03:22:23.362Z,42.10
2023-01-20T03:23:30.522Z,42.00
2023-01-20T03:24:35.430Z,41.10
2023-01-20T03:25:39.261Z,43.40
2023-01-20T03:26:42.220Z,41.40
2023-01-20T03:27:45.403Z,43.90
2023-01-20T03:28:49.619Z,42.20
2023-01-20T03:29:52.797Z,43.10
2023-01-20T03:30:57.699Z,41.00
2023-01-20T03:32:03.593Z,43.50
2023-01-20T03:33:07.229Z,40.40
2023-01-20T03:34:18.117Z,41.50
2023-01-20T03:35:21.529Z,38.90
2023-01-20T03:36:27.583Z,41.30
2023-01-20T03:37:30.506Z,38.50
2023-01-20T03:38:33.511Z,40.40
2023-01-20T03:39:39.994Z,38.60
2023-01-20T03:40:54.117Z,39.90
2023-01-20T03:42:17.676Z,40.00
2023-01-20T03:43:29.649Z,38.50
2023-01-20T03:45:11.288Z,39.70
2023-01-20T03:46:30.905Z,38.90
2023-01-20T03:47:33.777Z,39.10
2023-01-20T03:48:53.947Z,40.20
2023-01-20T03:50:05.615Z,39.30
2023-01-20T03:51:18.436Z,41.70
2023-01-20T03:52:52.797Z,40.50
2023-01-20T03:54:02.623Z,38.70
2023-01-20T03:55:13.041Z,39.90
2023-01-20T03:56:40.190Z,37.60
2023-01-20T03:57:51.537Z,37.40
2023-01-20T03:58:57.680Z,38.10
2023-01-20T04:00:02.740Z,40.00
2023-01-20T04:01:18.940Z,36.90
2023-01-20T04:02:23.241Z,38.60
2023-01-20T04:03:31.897Z,38.50
2023-01-20T04:04:38.304Z,38.70
2023-01-20T04:05:43.241Z,39.20
2023-01-20T04:06:49.994Z,40.30
2023-01-20T04:07:56.383Z,39.90
2023-01-20T04:09:31.039Z,39.70
2023-01-20T04:10:41.171Z,36.10
2023-01-20T04:11:44.181Z,38.00
2023-01-20T04:12:47.126Z,38.20
2023-01-20T04:13:51.270Z,40.30
2023-01-20T04:14:54.130Z,38.60
2023-01-20T04:15:58.689Z,39.60
2023-01-20T04:17:04.520Z,38.70
2023-01-20T04:18:15.886Z,39.20
2023-01-20T04:19:18.852Z,37.90
2023-01-20T04:20:24.542Z,39.20
2023-01-20T04:21:44.118Z,40.20
2023-01-20T04:22:58.930Z,37.80
2023-01-20T04:24:07.935Z,38.20
2023-01-20T04:25:29.136Z,37.60
2023-01-20T04:26:31.997Z,40.40
2023-01-20T04:27:35.007Z,42.30
2023-01-20T04:28:37.966Z,43.00
2023-01-20T04:29:41.748Z,42.00
2023-01-20T04:30:44.687Z,39.90
2023-01-20T04:31:47.863Z,40.30
2023-01-20T04:32:51.255Z,40.00
2023-01-20T04:33:54.099Z,41.10
2023-01-20T04:34:56.940Z,39.30
2023-01-20T04:35:59.816Z,40.30
2023-01-20T04:37:02.794Z,39.20
2023-01-20T04:38:06.682Z,39.20
2023-01-20T04:39:09.610Z,39.10
2023-01-20T04:40:12.686Z,41.00
2023-01-20T04:41:15.543Z,40.40
2023-01-20T04:42:18.419Z,41.10
2023-01-20T04:43:21.307Z,40.70
2023-01-20T04:44:24.207Z,40.50
2023-01-20T04:45:27.074Z,41.10
2023-01-20T04:46:29.966Z,39.60
2023-01-20T04:47:33.881Z,40.60
2023-01-20T04:48:36.756Z,38.80
2023-01-20T04:49:39.614Z,38.80
2023-01-20T04:50:43.514Z,39.50
2023-01-20T04:51:46.442Z,39.80
2023-01-20T04:52:49.334Z,40.10
2023-01-20T04:53:57.010Z,39.20
2023-01-20T04:54:59.962Z,39.50
2023-01-20T04:56:02.928Z,39.90
2023-01-20T04:57:06.517Z,39.30
2023-01-20T04:58:10.429Z,38.20
2023-01-20T04:59:13.329Z,41.00
2023-01-20T05:00:20.165Z,38.50
2023-01-20T05:01:23.786Z,38.90
2023-01-20T05:02:27.151Z,39.50
2023-01-20T05:03:30.157Z,38.60
2023-01-20T05:04:33.136Z,40.00
2023-01-20T05:05:36.061Z,38.70
2023-01-20T05:06:42.834Z,40.40
2023-01-20T05:07:45.755Z,38.70
2023-01-20T05:08:48.636Z,41.80
2023-01-20T05:09:51.544Z,39.30
2023-01-20T05:10:54.553Z,39.60
2023-01-20T05:11:57.408Z,42.00
2023-01-20T05:13:01.004Z,41.50
2023-01-20T05:14:03.853Z,38.20
2023-01-20T05:15:07.045Z,44.30
2023-01-20T05:16:10.819Z,41.70
2023-01-20T05:17:13.798Z,39.60
2023-01-20T05:18:16.837Z,41.00
2023-01-20T05:19:19.734Z,39.90
2023-01-20T05:20:22.645Z,41.50
2023-01-20T05:21:25.768Z,39.10
2023-01-20T05:22:29.526Z,43.00
2023-01-20T05:23:32.473Z,42.70
2023-01-20T05:24:35.344Z,43.00
2023-01-20T05:25:38.238Z,40.90
2023-01-20T05:26:41.153Z,42.00
2023-01-20T05:27:45.156Z,44.30
2023-01-20T05:28:48.104Z,43.30
2023-01-20T05:29:51.276Z,44.70
2023-01-20T05:30:54.222Z,45.30
2023-01-20T05:31:57.240Z,46.00
2023-01-20T05:33:00.166Z,52.20
2023-01-20T05:34:03.347Z,52.10
2023-01-20T05:35:06.901Z,53.50
2023-01-20T05:36:11.631Z,56.20
2023-01-20T05:37:17.709Z,58.40
2023-01-20T05:38:20.645Z,59.00
2023-01-20T05:39:23.568Z,55.00
2023-01-20T05:40:26.432Z,53.90
2023-01-20T05:41:29.429Z,53.90
2023-01-20T05:42:33.196Z,51.80
2023-01-20T05:43:36.372Z,51.10
2023-01-20T05:44:39.251Z,51.00
2023-01-20T05:45:42.503Z,48.70
2023-01-20T05:46:45.599Z,45.70
2023-01-20T05:47:48.513Z,48.60
2023-01-20T05:48:51.479Z,45.10
2023-01-20T05:49:54.401Z,48.70
2023-01-20T05:50:57.327Z,46.70
2023-01-20T05:52:00.292Z,48.90
2023-01-20T05:53:03.327Z,49.90
2023-01-20T05:54:06.258Z,49.70
2023-01-20T05:55:09.773Z,49.00
2023-01-20T05:56:16.244Z,50.00
2023-01-20T05:57:19.299Z,52.70
2023-01-20T05:58:23.065Z,49.80
2023-01-20T05:59:26.173Z,49.00
2023-01-20T06:00:29.852Z,49.90
2023-01-20T06:01:32.764Z,48.30
2023-01-20T06:02:35.810Z,47.80
2023-01-20T06:03:39.582Z,47.30
2023-01-20T06:04:42.468Z,47.00
2023-01-20T06:05:45.385Z,46.20
2023-01-20T06:06:48.371Z,46.00
2023-01-20T06:07:51.550Z,46.90
2023-01-20T06:08:55.281Z,47.20
2023-01-20T06:09:58.593Z,47.70
2023-01-20T06:11:02.608Z,46.70
2023-01-20T06:12:06.137Z,48.60
2023-01-20T06:13:09.041Z,48.20
2023-01-20T06:14:11.902Z,48.60
2023-01-20T06:15:15.067Z,48.00
2023-01-20T06:16:19.118Z,48.20
2023-01-20T06:17:23.097Z,47.10
2023-01-20T06:18:26.599Z,46.60
2023-01-20T06:19:29.469Z,48.40
2023-01-20T06:20:32.384Z,48.40
2023-01-20T06:21:35.306Z,46.50
2023-01-20T06:22:38.398Z,46.30
2023-01-20T06:23:41.821Z,45.10
2023-01-20T06:24:44.704Z,46.40
2023-01-20T06:25:47.565Z,47.40
2023-01-20T06:26:51.340Z,47.20
2023-01-20T06:27:54.185Z,44.90
2023-01-20T06:29:01.625Z,46.60
2023-01-20T06:30:06.746Z,46.70
2023-01-20T06:31:13.315Z,48.50
2023-01-20T06:32:16.239Z,46.50
2023-01-20T06:33:19.103Z,46.80
2023-01-20T06:34:21.968Z,47.60
2023-01-20T06:35:25.117Z,47.70
2023-01-20T06:36:28.102Z,48.20
2023-01-20T06:37:30.962Z,48.50
2023-01-20T06:38:35.331Z,50.50
2023-01-20T06:39:38.882Z,49.50
2023-01-20T06:40:41.791Z,49.60
2023-01-20T06:41:44.763Z,48.40
2023-01-20T06:42:47.630Z,48.80
2023-01-20T06:43:51.330Z,47.30
2023-01-20T06:44:54.254Z,47.60
2023-01-20T06:46:02.250Z,47.20
2023-01-20T06:47:05.161Z,47.70
2023-01-20T06:48:08.111Z,48.30
2023-01-20T06:49:11.003Z,46.00
2023-01-20T06:50:14.057Z,48.50
2023-01-20T06:51:20.465Z,46.80
2023-01-20T06:52:23.322Z,47.10
2023-01-20T06:53:26.217Z,48.50
2023-01-20T06:54:29.083Z,52.40
2023-01-20T06:55:32.011Z,48.30
2023-01-20T06:56:34.968Z,50.10
2023-01-20T06:57:37.893Z,49.10
2023-01-20T06:58:41.461Z,50.70
2023-01-20T06:59:44.346Z,50.40
2023-01-20T07:00:47.189Z,52.30
2023-01-20T07:01:50.277Z,51.40
2023-01-20T07:02:53.266Z,51.00
2023-01-20T07:03:56.665Z,49.10
2023-01-20T07:05:00.547Z,49.50
2023-01-20T07:06:07.555Z,50.00
2023-01-20T07:07:13.075Z,51.70
2023-01-20T07:08:15.963Z,48.40
2023-01-20T07:09:19.376Z,50.10
2023-01-20T07:10:22.295Z,48.00
2023-01-20T07:11:25.383Z,50.00
2023-01-20T07:12:28.229Z,50.40
2023-01-20T07:13:31.139Z,48.40
2023-01-20T07:14:34.039Z,50.00
2023-01-20T07:15:36.985Z,49.80
2023-01-20T07:16:40.138Z,50.20
2023-01-20T07:17:43.070Z,48.70
2023-01-20T07:18:51.367Z,51.20
2023-01-20T07:19:54.296Z,50.00
2023-01-20T07:20:57.889Z,48.90
2023-01-20T07:22:00.811Z,48.90
2023-01-20T07:23:03.787Z,50.40
2023-01-20T07:24:07.065Z,51.30
2023-01-20T07:25:10.109Z,52.40
2023-01-20T07:26:16.231Z,48.10
2023-01-20T07:27:19.078Z,48.90
2023-01-20T07:28:22.014Z,51.70
2023-01-20T07:29:25.005Z,50.60
2023-01-20T07:30:27.855Z,53.30
2023-01-20T07:31:34.492Z,50.80
2023-01-20T07:32:37.429Z,51.50
2023-01-20T07:33:40.373Z,51.10
2023-01-20T07:34:43.223Z,53.90
2023-01-20T07:35:51.497Z,51.40
2023-01-20T07:36:54.440Z,51.00
2023-01-20T07:37:57.352Z,50.40
2023-01-20T07:39:00.236Z,54.30
2023-01-20T07:40:03.490Z,51.40
2023-01-20T07:41:16.479Z,51.80
2023-01-20T07:42:19.620Z,50.10
2023-01-20T07:43:22.923Z,53.70
2023-01-20T07:44:25.987Z,51.30
2023-01-20T07:45:28.870Z,52.60
2023-01-20T07:46:32.292Z,51.40
2023-01-20T07:47:35.219Z,51.90
2023-01-20T07:48:39.808Z,50.20
2023-01-20T07:49:42.652Z,49.10
2023-01-20T07:50:45.490Z,50.70
2023-01-20T07:51:48.328Z,48.50
2023-01-20T07:52:51.184Z,46.80
2023-01-20T07:53:54.059Z,48.50
2023-01-20T07:54:56.900Z,48.30
2023-01-20T07:56:24.479Z,49.50
2023-01-20T07:57:30.481Z,44.40
2023-01-20T07:58:34.244Z,46.30
2023-01-20T07:59:37.112Z,45.60
2023-01-20T08:00:40.006Z,45.90
2023-01-20T08:01:43.363Z,47.70
2023-01-20T08:02:46.527Z,47.20
2023-01-20T08:03:49.641Z,46.40
2023-01-20T08:04:52.559Z,48.00
2023-01-20T08:05:55.557Z,44.00
2023-01-20T08:06:58.401Z,44.50
2023-01-20T08:08:01.271Z,43.70
2023-01-20T08:09:04.273Z,45.80
2023-01-20T08:10:07.657Z,44.30
2023-01-20T08:11:13.824Z,46.10
2023-01-20T08:12:16.698Z,47.20
2023-01-20T08:13:19.540Z,44.60
2023-01-20T08:14:22.487Z,44.20
2023-01-20T08:15:25.528Z,43.80
2023-01-20T08:16:28.430Z,45.70
2023-01-20T08:17:31.391Z,43.80
2023-01-20T08:18:35.814Z,43.30
2023-01-20T08:19:38.676Z,44.50
2023-01-20T08:20:41.988Z,43.20
2023-01-20T08:21:44.883Z,47.10
2023-01-20T08:22:47.779Z,45.20
2023-01-20T08:23:51.056Z,46.10
2023-01-20T08:24:54.140Z,43.70
2023-01-20T08:26:02.272Z,44.30
2023-01-20T08:27:05.250Z,41.60
2023-01-20T08:28:08.432Z,40.40
2023-01-20T08:29:11.393Z,41.60
2023-01-20T08:30:14.495Z,41.40
2023-01-20T08:31:20.610Z,41.80
2023-01-20T08:32:23.636Z,41.60
2023-01-20T08:33:26.820Z,41.90
2023-01-20T08:34:29.781Z,43.60
2023-01-20T08:35:35.789Z,46.60
2023-01-20T08:36:40.715Z,44.10
2023-01-20T08:37:43.659Z,43.30
2023-01-20T08:38:47.294Z,44.10
2023-01-20T08:39:50.214Z,46.90
2023-01-20T08:40:53.204Z,46.90
2023-01-20T08:41:56.176Z,48.00
2023-01-20T08:42:59.061Z,50.60
2023-01-20T08:44:04.901Z,46.50
2023-01-20T08:45:09.337Z,47.80
2023-01-20T08:46:15.317Z,49.30
2023-01-20T08:47:18.232Z,49.00
2023-01-20T08:48:21.636Z,48.90
2023-01-20T08:49:25.012Z,48.10
2023-01-20T08:50:27.926Z,47.30
2023-01-20T08:51:32.281Z,48.30
2023-01-20T08:52:35.545Z,46.60
2023-01-20T08:53:38.599Z,48.00
2023-01-20T08:54:41.878Z,47.30
2023-01-20T08:55:44.786Z,49.10
2023-01-20T08:56:51.341Z,48.50
2023-01-20T08:57:54.296Z,46.30
2023-01-20T08:58:58.486Z,46.70
2023-01-20T09:00:01.410Z,48.70
2023-01-20T09:01:13.577Z,45.20
2023-01-20T09:02:16.563Z,44.30
2023-01-20T09:03:19.917Z,45.50
2023-01-20T09:04:22.818Z,48.20
2023-01-20T09:05:27.240Z,48.20
2023-01-20T09:06:30.162Z,48.80
2023-01-20T09:07:33.017Z,47.20
2023-01-20T09:08:37.707Z,47.60
2023-01-20T09:09:40.537Z,47.20
2023-01-20T09:10:44.289Z,48.10
2023-01-20T09:11:51.483Z,47.90
2023-01-20T09:12:54.488Z,47.60
2023-01-20T09:13:57.688Z,46.20
2023-01-20T09:15:04.723Z,46.20
2023-01-20T09:16:09.059Z,46.60
2023-01-20T09:17:11.945Z,45.90
2023-01-20T09:18:14.757Z,47.90
2023-01-20T09:19:17.785Z,45.60
2023-01-20T09:20:20.891Z,43.70
2023-01-20T09:21:23.933Z,41.20
2023-01-20T09:22:26.793Z,42.20
2023-01-20T09:23:29.652Z,42.40
2023-01-20T09:24:32.760Z,41.50
2023-01-20T09:25:36.556Z,43.90
2023-01-20T09:26:39.536Z,43.50
2023-01-20T09:27:42.384Z,45.60
2023-01-20T09:28:46.696Z,45.10
2023-01-20T09:29:49.581Z,45.00
2023-01-20T09:30:58.699Z,42.50
2023-01-20T09:32:01.674Z,44.10
2023-01-20T09:33:04.588Z,41.80
2023-01-20T09:34:07.662Z,40.00
2023-01-20T09:35:10.706Z,41.10
2023-01-20T09:36:13.785Z,40.70
2023-01-20T09:37:35.491Z,40.20
2023-01-20T09:38:57.382Z,38.00
2023-01-20T09:40:18.748Z,38.10
2023-01-20T09:41:52.291Z,37.20
2023-01-20T09:43:35.425Z,34.70
2023-01-20T09:44:53.595Z,36.20
2023-01-20T09:46:12.008Z,37.00
2023-01-20T09:47:33.905Z,37.50
2023-01-20T09:49:09.546Z,37.70
2023-01-20T09:50:52.545Z,36.30
2023-01-20T09:52:40.566Z,35.30
2023-01-20T09:53:58.762Z,34.90
2023-01-20T09:55:10.268Z,36.60
2023-01-20T09:56:17.824Z,37.40
2023-01-20T09:57:24.432Z,39.70
2023-01-20T09:58:56.441Z,38.10
2023-01-20T10:00:12.256Z,38.20
2023-01-20T10:01:40.806Z,37.90
2023-01-20T10:02:49.878Z,38.50
2023-01-20T10:04:04.040Z,38.90
2023-01-20T10:05:20.025Z,39.10
2023-01-20T10:06:39.381Z,38.40
2023-01-20T10:08:06.990Z,40.00
2023-01-20T10:09:24.657Z,40.30
2023-01-20T10:10:36.587Z,37.20
2023-01-20T10:11:43.444Z,37.70
2023-01-20T10:13:01.893Z,39.10
2023-01-20T10:14:11.772Z,36.80
2023-01-20T10:15:24.610Z,36.40
2023-01-20T10:16:40.853Z,36.70
2023-01-20T10:17:48.167Z,38.50
2023-01-20T10:19:05.141Z,37.70
2023-01-20T10:20:29.183Z,36.50
2023-01-20T10:21:46.070Z,36.80
2023-01-20T10:23:06.404Z,35.30
2023-01-20T10:24:35.406Z,33.00
2023-01-20T10:25:47.728Z,32.30
2023-01-20T10:26:57.326Z,31.50
2023-01-20T10:28:11.281Z,33.10
2023-01-20T10:29:22.429Z,32.90
2023-01-20T10:30:31.442Z,30.40
2023-01-20T10:31:42.669Z,30.90
2023-01-20T10:33:09.590Z,31.60
2023-01-20T10:34:20.104Z,28.40
2023-01-20T10:35:26.325Z,29.00
2023-01-20T10:36:30.984Z,28.80
2023-01-20T10:37:35.722Z,27.20
2023-01-20T10:38:53.943Z,27.40
2023-01-20T10:40:14.566Z,26.60
2023-01-20T10:41:22.141Z,27.60
2023-01-20T10:42:28.456Z,26.50
2023-01-20T10:43:31.798Z,25.80
2023-01-20T10:44:38.125Z,26.80
2023-01-20T10:45:43.416Z,26.60
2023-01-20T10:47:21.898Z,24.70
2023-01-20T10:48:39.210Z,25.20
2023-01-20T10:50:00.969Z,23.50
2023-01-20T10:51:15.064Z,24.60
2023-01-20T10:52:42.933Z,25.20
2023-01-20T10:54:14.074Z,22.70
2023-01-20T10:55:45.242Z,22.00
2023-01-20T10:56:54.087Z,23.00
2023-01-20T10:58:06.205Z,22.20
2023-01-20T10:59:15.645Z,23.10
2023-01-20T11:00:25.641Z,22.60
2023-01-20T11:01:28.564Z,23.10
2023-01-20T11:02:35.170Z,24.10
2023-01-20T11:03:42.832Z,24.80
2023-01-20T11:04:52.942Z,24.30
2023-01-20T11:05:55.872Z,23.40
2023-01-20T11:07:00.884Z,25.60
2023-01-20T11:08:10.603Z,25.00
2023-01-20T11:10:25.968Z,23.40
2023-01-20T11:11:29.742Z,24.40
2023-01-20T11:12:40.040Z,25.20
2023-01-20T11:13:43.251Z,25.40
2023-01-20T11:14:48.343Z,25.10
2023-01-20T11:15:57.229Z,23.70
2023-01-20T11:17:05.301Z,24.40
2023-01-20T11:18:14.281Z,24.90
2023-01-20T11:19:17.182Z,24.90
2023-01-20T11:20:22.094Z,26.70
2023-01-20T11:21:26.625Z,25.90
2023-01-20T11:22:33.606Z,26.60
2023-01-20T11:23:41.007Z,26.30
2023-01-20T11:24:45.348Z,25.30
2023-01-20T11:25:57.803Z,26.70
2023-01-20T11:27:06.293Z,26.10
2023-01-20T11:28:18.199Z,25.50
2023-01-20T11:29:21.064Z,27.00
2023-01-20T11:30:28.573Z,27.20
2023-01-20T11:31:51.852Z,25.40
2023-01-20T11:33:28.731Z,25.60
2023-01-20T11:34:35.722Z,23.40
2023-01-20T11:35:38.633Z,25.90
2023-01-20T11:36:41.537Z,26.10
2023-01-20T11:37:44.898Z,25.50
2023-01-20T11:38:50.122Z,26.50
2023-01-20T11:39:55.499Z,26.80
2023-01-20T11:40:59.282Z,26.90
2023-01-20T11:42:26.393Z,29.00
2023-01-20T11:43:34.275Z,27.70
2023-01-20T11:44:45.474Z,27.70
2023-01-20T11:45:48.354Z,27.60
2023-01-20T11:46:51.197Z,27.50
2023-01-20T11:48:04.345Z,27.70
2023-01-20T11:49:13.223Z,28.20
2023-01-20T11:50:31.663Z,28.70
2023-01-20T11:51:49.246Z,25.30
2023-01-20T11:52:52.536Z,25.30
2023-01-20T11:54:13.824Z,26.00
2023-01-20T11:55:24.433Z,25.30
2023-01-20T11:56:27.301Z,25.10
2023-01-20T11:57:30.790Z,26.80
2023-01-20T11:58:52.752Z,26.30
2023-01-20T11:59:55.669Z,26.60
2023-01-20T12:01:07.274Z,27.40
2023-01-20T12:02:10.147Z,27.70
2023-01-20T12:03:13.006Z,26.40
2023-01-20T12:04:27.996Z,26.20
2023-01-20T12:05:34.514Z,25.20
2023-01-20T12:07:02.807Z,25.40
2023-01-20T12:08:16.424Z,23.90
2023-01-20T12:09:27.180Z,25.30
2023-01-20T12:10:35.807Z,28.00
2023-01-20T12:12:06.678Z,27.40
2023-01-20T12:13:25.853Z,24.70
2023-01-20T12:14:45.867Z,24.60
2023-01-20T12:15:54.726Z,24.30
2023-01-20T12:17:10.648Z,25.80
2023-01-20T12:18:23.445Z,24.40
2023-01-20T12:19:44.387Z,24.00
2023-01-20T12:20:59.099Z,24.60
2023-01-20T12:22:09.976Z,24.00
2023-01-20T12:23:13.367Z,24.30
2023-01-20T12:24:35.424Z,25.00
2023-01-20T12:26:00.366Z,24.70
2023-01-20T12:27:03.383Z,24.50
2023-01-20T12:28:15.942Z,26.10
2023-01-20T12:29:26.117Z,24.90
2023-01-20T12:30:38.529Z,25.60
2023-01-20T12:31:43.586Z,25.00
2023-01-20T12:32:46.807Z,25.00
2023-01-20T12:33:54.510Z,24.10
2023-01-20T12:34:57.651Z,23.80
2023-01-20T12:36:19.664Z,24.40
2023-01-20T12:37:25.437Z,23.70
2023-01-20T12:38:32.978Z,23.70
2023-01-20T12:39:48.183Z,22.90
2023-01-20T12:40:55.460Z,23.00
2023-01-20T12:42:07.172Z,23.80
2023-01-20T12:43:16.182Z,25.00
2023-01-20T12:44:44.575Z,23.90
2023-01-20T12:46:30.338Z,25.40
2023-01-20T12:47:33.142Z,24.50
2023-01-20T12:48:42.847Z,26.20
2023-01-20T12:51:21.017Z,22.60
2023-01-20T12:53:03.334Z,23.50
2023-01-20T12:54:20.061Z,23.10
2023-01-20T12:55:45.572Z,22.40
2023-01-20T12:57:11.406Z,22.10
2023-01-20T12:58:19.974Z,22.20
2023-01-20T12:59:41.609Z,22.60
2023-01-20T13:00:44.462Z,21.60
2023-01-20T13:02:10.823Z,22.20
2023-01-20T13:03:35.461Z,23.00
2023-01-20T13:04:50.126Z,22.30
2023-01-20T13:06:05.069Z,23.80
2023-01-20T13:07:10.623Z,22.10
2023-01-20T13:08:13.466Z,24.10
2023-01-20T13:09:42.852Z,23.90
2023-01-20T13:11:15.427Z,22.40
2023-01-20T13:12:46.472Z,22.70
2023-01-20T13:14:12.312Z,22.60
2023-01-20T13:15:26.937Z,22.70
2023-01-20T13:16:51.332Z,21.50
2023-01-20T13:18:02.980Z,22.10
2023-01-20T13:19:24.256Z,20.30
2023-01-20T13:20:30.273Z,21.50
2023-01-20T13:21:34.573Z,20.10
2023-01-20T13:22:38.076Z,18.90
2023-01-20T13:23:40.956Z,19.00
2023-01-20T13:24:47.442Z,19.00
2023-01-20T13:25:51.860Z,18.70
2023-01-20T13:26:57.719Z,18.80
2023-01-20T13:28:01.065Z,19.00
2023-01-20T13:29:04.116Z,18.40
2023-01-20T13:30:08.529Z,19.20
2023-01-20T13:31:53.527Z,17.70
2023-01-20T13:33:13.813Z,18.80
2023-01-20T13:34:22.851Z,17.30
2023-01-20T13:35:25.721Z,18.50
2023-01-20T13:36:28.605Z,19.40
2023-01-20T13:37:35.620Z,19.40
2023-01-20T13:38:39.621Z,19.90
2023-01-20T13:39:46.749Z,19.00
2023-01-20T13:40:55.671Z,20.90
2023-01-20T13:41:58.975Z,18.90
2023-01-20T13:43:22.772Z,19.90
2023-01-20T13:44:40.315Z,18.50
2023-01-20T13:45:45.070Z,19.00
2023-01-20T13:46:48.972Z,19.10
2023-01-20T13:48:03.568Z,21.30
2023-01-20T13:49:12.707Z,19.00
2023-01-20T13:50:42.730Z,19.70
2023-01-20T13:51:46.437Z,18.70
2023-01-20T13:52:52.306Z,19.50
2023-01-20T13:54:15.185Z,20.50
2023-01-20T13:55:50.790Z,21.00
2023-01-20T13:57:28.493Z,19.40
2023-01-20T13:58:35.923Z,20.90
2023-01-20T13:59:38.899Z,22.20
2023-01-20T14:00:42.959Z,22.90
2023-01-20T14:01:45.997Z,22.30
2023-01-20T14:02:50.176Z,23.10
2023-01-20T14:04:22.043Z,23.60
2023-01-20T14:05:31.227Z,22.40
2023-01-20T14:06:36.004Z,23.80
2023-01-20T14:07:39.081Z,23.10
2023-01-20T14:08:44.468Z,22.70
2023-01-20T14:09:52.311Z,23.50
2023-01-20T14:11:12.227Z,23.50
2023-01-20T14:12:15.126Z,23.50
2023-01-20T14:13:19.475Z,24.30
2023-01-20T14:14:26.814Z,23.60
2023-01-20T14:15:34.805Z,23.80
2023-01-20T14:16:41.982Z,24.40
2023-01-20T14:17:53.292Z,24.80
2023-01-20T14:18:59.821Z,25.60
2023-01-20T14:20:03.098Z,24.70
2023-01-20T14:21:29.979Z,24.80
2023-01-20T14:22:32.888Z,24.90
2023-01-20T14:23:38.493Z,25.70
2023-01-20T14:25:00.165Z,24.90
2023-01-20T14:26:07.107Z,23.20
2023-01-20T14:27:24.110Z,22.70
2023-01-20T14:28:27.412Z,23.30
2023-01-20T14:29:30.267Z,24.30
2023-01-20T14:30:33.335Z,24.50
2023-01-20T14:31:47.887Z,24.90
2023-01-20T14:32:52.817Z,24.70
2023-01-20T14:34:02.333Z,23.90
2023-01-20T14:35:33.474Z,24.50
2023-01-20T14:36:36.418Z,24.40
2023-01-20T14:37:40.570Z,24.40